createdAt,value
2022-10-11T00:01:52.253Z,14.10
2022-10-11T00:04:53.955Z,15.30
2022-10-11T00:07:56.085Z,14.90
2022-10-11T00:11:03.726Z,13.00
2022-10-11T00:14:06.085Z,13.00
2022-10-11T00:17:08.226Z,13.60
2022-10-11T00:20:10.899Z,14.00
2022-10-11T00:23:12.553Z,13.50
2022-10-11T00:26:14.357Z,14.30
2022-10-11T00:32:17.930Z,12.90
2022-10-11T00:35:19.923Z,16.70
2022-10-11T00:38:21.644Z,16.30
2022-10-11T00:44:27.336Z,13.80
2022-10-11T00:47:28.998Z,16.40
2022-10-11T00:50:33.505Z,14.40
2022-10-11T00:53:35.221Z,15.30
2022-10-11T00:59:47.288Z,13.60
2022-10-11T01:02:49.335Z,14.50
2022-10-11T01:05:50.987Z,14.20
2022-10-11T01:11:56.995Z,15.40
2022-10-11T01:15:17.761Z,15.80
2022-10-11T01:18:30.365Z,16.70
2022-10-11T01:21:53.314Z,16.80
2022-10-11T01:25:24.886Z,15.90
2022-10-11T01:28:50.475Z,14.90
2022-10-11T01:32:07.650Z,14.60
2022-10-11T01:35:15.651Z,15.10
2022-10-11T01:38:34.584Z,14.50
2022-10-11T01:41:43.164Z,14.20
2022-10-11T01:44:47.737Z,14.20
2022-10-11T01:48:01.791Z,17.20
2022-10-11T01:51:03.995Z,20.10
2022-10-11T01:54:35.221Z,22.70
2022-10-11T01:58:34.440Z,20.30
2022-10-11T02:01:49.295Z,15.40
2022-10-11T02:04:55.412Z,14.30
2022-10-11T02:08:27.155Z,14.50
2022-10-11T02:14:36.281Z,14.50
2022-10-11T02:17:45.230Z,14.00
2022-10-11T02:20:47.538Z,14.80
2022-10-11T02:24:06.951Z,14.80
2022-10-11T02:27:09.760Z,16.90
2022-10-11T02:30:11.550Z,15.80
2022-10-11T02:33:15.359Z,18.20
2022-10-11T02:36:26.226Z,21.60
2022-10-11T02:39:39.501Z,24.10
2022-10-11T02:42:48.800Z,23.70
2022-10-11T02:46:02.047Z,21.00
2022-10-11T02:49:04.271Z,23.30
2022-10-11T02:58:10.146Z,21.20
2022-10-11T03:04:13.430Z,24.20
2022-10-11T03:07:15.481Z,24.60
2022-10-11T03:13:19.066Z,23.50
2022-10-11T03:16:20.822Z,25.80
2022-10-11T03:22:24.076Z,23.80
2022-10-11T03:25:25.723Z,24.00
2022-10-11T03:28:27.509Z,26.00
2022-10-11T03:31:29.146Z,28.80
2022-10-11T03:37:32.335Z,28.10
2022-10-11T03:43:36.063Z,28.40
2022-10-11T03:49:43.412Z,31.70
2022-10-11T03:52:45.722Z,30.00
2022-10-11T03:55:52.327Z,30.30
2022-10-11T03:58:53.973Z,28.80
2022-10-11T04:04:57.539Z,30.50
2022-10-11T04:11:00.775Z,28.60
2022-10-11T04:17:04.359Z,27.10
2022-10-11T04:23:08.762Z,25.50
2022-10-11T04:26:10.535Z,23.90
2022-10-11T04:29:12.384Z,23.70
2022-10-11T04:32:14.086Z,21.90
2022-10-11T04:38:17.543Z,20.80
2022-10-11T04:44:20.872Z,17.70
2022-10-11T04:47:22.621Z,24.80
2022-10-11T04:53:26.085Z,26.30
2022-10-11T04:56:29.024Z,24.70
2022-10-11T04:59:31.081Z,26.90
2022-10-11T05:02:32.885Z,28.80
2022-10-11T05:05:34.604Z,30.80
2022-10-11T05:11:38.061Z,27.10
2022-10-11T05:17:41.462Z,31.30
2022-10-11T05:23:45.728Z,31.70
2022-10-11T05:26:47.838Z,30.90
2022-10-11T05:29:49.543Z,30.10
2022-10-11T05:32:51.177Z,30.90
2022-10-11T05:38:54.722Z,32.00
2022-10-11T05:41:56.952Z,31.10
2022-10-11T05:44:58.655Z,30.90
2022-10-11T05:48:00.477Z,28.80
2022-10-11T05:51:05.198Z,29.00
2022-10-11T05:54:07.017Z,28.50
2022-10-11T05:57:08.627Z,27.30
2022-10-11T06:03:13.628Z,25.20
2022-10-11T06:06:15.953Z,26.90
2022-10-11T06:09:17.921Z,24.50
2022-10-11T06:12:19.728Z,27.40
2022-10-11T06:15:21.511Z,26.60
2022-10-11T06:18:23.176Z,24.90
2022-10-11T06:21:24.910Z,27.00
2022-10-11T06:24:26.632Z,27.50
2022-10-11T06:27:28.480Z,28.00
2022-10-11T06:30:30.103Z,28.20
2022-10-11T06:33:32.290Z,29.60
2022-10-11T06:36:34.044Z,30.30
2022-10-11T06:39:35.687Z,31.60
2022-10-11T06:42:38.309Z,31.90
2022-10-11T06:45:39.898Z,31.60
2022-10-11T06:48:45.843Z,31.50
2022-10-11T06:51:47.514Z,32.80
2022-10-11T06:54:49.298Z,32.00
2022-10-11T06:57:50.958Z,30.20
2022-10-11T07:00:52.658Z,30.20
2022-10-11T07:03:56.307Z,29.50
2022-10-11T07:06:57.976Z,29.20
2022-10-11T07:09:59.720Z,29.80
2022-10-11T07:13:01.467Z,32.00
2022-10-11T07:16:05.365Z,32.00
2022-10-11T07:19:07.352Z,30.40
2022-10-11T07:22:09.226Z,29.30
2022-10-11T07:25:10.921Z,26.70
2022-10-11T07:28:13.492Z,24.80
2022-10-11T07:31:18.006Z,26.00
2022-10-11T07:34:20.731Z,26.40
2022-10-11T07:37:22.391Z,25.00
2022-10-11T07:40:24.465Z,24.70
2022-10-11T07:43:26.134Z,25.70
2022-10-11T07:46:27.768Z,24.00
2022-10-11T07:49:29.458Z,24.80
2022-10-11T07:52:31.170Z,22.70
2022-10-11T07:55:40.318Z,22.00
2022-10-11T07:58:42.723Z,20.30
2022-10-11T08:01:44.910Z,20.00
2022-10-11T08:04:46.587Z,19.40
2022-10-11T08:07:48.910Z,20.70
2022-10-11T08:10:50.602Z,20.10
2022-10-11T08:13:52.432Z,18.90
2022-10-11T08:16:54.123Z,18.80
2022-10-11T08:19:55.864Z,18.70
2022-10-11T08:22:57.599Z,17.60
2022-10-11T08:25:59.260Z,20.60
2022-10-11T08:29:05.314Z,19.00
2022-10-11T08:32:07.274Z,18.90
2022-10-11T08:35:09.073Z,19.00
2022-10-11T08:38:11.094Z,17.90
2022-10-11T08:41:47.716Z,19.80
2022-10-11T08:48:21.766Z,19.70
2022-10-11T08:51:32.702Z,18.90
2022-10-11T08:54:46.928Z,17.80
2022-10-11T08:57:53.265Z,18.90
2022-10-11T09:00:56.923Z,19.30
2022-10-11T09:04:03.663Z,18.80
2022-10-11T09:07:09.418Z,19.20
2022-10-11T09:10:46.563Z,19.20
2022-10-11T09:14:09.780Z,18.00
2022-10-11T09:17:37.133Z,18.50
2022-10-11T09:21:12.313Z,16.30
2022-10-11T09:24:52.507Z,15.30
2022-10-11T09:28:03.899Z,16.40
2022-10-11T09:31:09.937Z,16.30
2022-10-11T09:34:14.654Z,16.50
2022-10-11T09:37:32.777Z,16.10
2022-10-11T09:40:48.021Z,16.00
2022-10-11T09:43:51.443Z,15.60
2022-10-11T09:46:55.542Z,16.70
2022-10-11T09:50:07.776Z,16.00
2022-10-11T09:53:09.465Z,16.90
2022-10-11T09:56:11.217Z,16.70
2022-10-11T09:59:29.540Z,16.40
2022-10-11T10:02:43.199Z,16.30
2022-10-11T10:05:44.880Z,17.70
2022-10-11T10:08:47.821Z,17.20
2022-10-11T10:11:49.593Z,15.70
2022-10-11T10:15:18.218Z,15.80
2022-10-11T10:18:27.758Z,16.60
2022-10-11T10:21:37.975Z,17.10
2022-10-11T10:24:41.748Z,17.90
2022-10-11T10:27:57.474Z,18.10
2022-10-11T10:30:59.952Z,17.30
2022-10-11T10:34:03.078Z,16.20
2022-10-11T10:37:20.569Z,16.00
2022-10-11T10:40:36.453Z,15.70
2022-10-11T10:43:40.367Z,14.90
2022-10-11T10:47:09.919Z,14.10
2022-10-11T10:50:19.201Z,13.90
2022-10-11T10:53:39.265Z,14.70
2022-10-11T10:56:53.785Z,14.00
2022-10-11T11:00:07.671Z,14.20
2022-10-11T11:03:13.830Z,15.30
2022-10-11T11:06:30.541Z,13.80
2022-10-11T11:09:48.354Z,14.50
2022-10-11T11:13:17.303Z,14.00
2022-10-11T11:16:31.379Z,13.80
2022-10-11T11:19:46.444Z,13.80
2022-10-11T11:23:41.025Z,13.20
2022-10-11T11:26:56.782Z,12.80
2022-10-11T11:30:12.903Z,12.90
2022-10-11T11:33:33.477Z,13.60
2022-10-11T11:37:07.718Z,12.00
2022-10-11T11:40:12.982Z,11.70
2022-10-11T11:43:17.417Z,10.10
2022-10-11T11:46:23.521Z,11.70
2022-10-11T11:49:35.512Z,11.50
2022-10-11T11:52:40.606Z,11.20
2022-10-11T11:55:57.660Z,11.70
2022-10-11T11:59:49.276Z,10.10
2022-10-11T12:02:55.625Z,10.20
2022-10-11T12:06:33.116Z,11.00
2022-10-11T12:09:36.597Z,10.70
2022-10-11T12:12:38.286Z,9.40
2022-10-11T12:15:40.100Z,8.30
2022-10-11T12:18:56.856Z,7.20
2022-10-11T12:22:29.299Z,7.10
2022-10-11T12:25:38.546Z,7.30
2022-10-11T12:28:43.623Z,8.50
2022-10-11T12:31:48.071Z,8.00
2022-10-11T12:34:49.963Z,7.90
2022-10-11T12:37:51.921Z,8.00
2022-10-11T12:40:57.198Z,8.40
2022-10-11T12:44:28.042Z,9.10
2022-10-11T12:47:39.660Z,8.40
2022-10-11T12:50:47.471Z,8.80
2022-10-11T12:54:26.128Z,8.70
2022-10-11T12:57:48.140Z,9.50
2022-10-11T13:00:55.547Z,9.00
2022-10-11T13:04:01.057Z,10.10
2022-10-11T13:07:07.219Z,8.80
2022-10-11T13:10:14.821Z,8.30
2022-10-11T13:13:26.473Z,8.00
2022-10-11T13:16:30.699Z,8.20
2022-10-11T13:19:35.095Z,8.70
2022-10-11T13:22:39.869Z,8.30
2022-10-11T13:25:41.630Z,8.40
2022-10-11T13:28:43.402Z,8.60
2022-10-11T13:31:46.451Z,8.50
2022-10-11T13:34:50.439Z,7.80
2022-10-11T13:37:52.253Z,7.60
2022-10-11T13:40:55.967Z,6.70
2022-10-11T13:43:59.370Z,6.70
2022-10-11T13:47:01.120Z,6.60
2022-10-11T13:50:11.115Z,6.50
2022-10-11T13:53:12.720Z,6.50
2022-10-11T13:56:19.229Z,6.60
2022-10-11T13:59:23.562Z,6.70
2022-10-11T14:02:26.654Z,6.50
2022-10-11T14:06:01.429Z,7.40
2022-10-11T14:09:03.269Z,6.60
2022-10-11T14:12:29.162Z,6.10
2022-10-11T14:15:38.253Z,6.30
2022-10-11T14:18:45.104Z,6.50
2022-10-11T14:21:46.770Z,6.50
2022-10-11T14:24:48.618Z,7.10
2022-10-11T14:27:50.418Z,7.70
2022-10-11T14:30:52.176Z,7.90
2022-10-11T14:33:54.789Z,10.80
2022-10-11T14:36:56.513Z,9.40
2022-10-11T14:39:58.195Z,9.70
2022-10-11T14:42:59.932Z,9.40
2022-10-11T14:46:03.379Z,9.20
2022-10-11T14:49:17.613Z,9.60
2022-10-11T14:52:19.316Z,9.60
2022-10-11T14:55:21.025Z,9.60
2022-10-11T14:58:22.734Z,9.60
2022-10-11T15:01:24.574Z,10.30
2022-10-11T15:04:27.090Z,9.60
2022-10-11T15:07:28.756Z,10.00
2022-10-11T15:10:35.988Z,9.30
2022-10-11T15:13:37.718Z,10.00
2022-10-11T15:16:42.200Z,9.70
2022-10-11T15:19:44.003Z,10.30
2022-10-11T15:22:45.710Z,10.60
2022-10-11T15:25:48.101Z,10.90
2022-10-11T15:28:50.493Z,12.90
2022-10-11T15:31:52.323Z,13.20
2022-10-11T15:34:53.959Z,12.40
2022-10-11T15:37:58.143Z,12.80
2022-10-11T15:41:00.568Z,15.80
2022-10-11T15:44:02.325Z,15.30
2022-10-11T15:47:04.164Z,15.00
2022-10-11T15:50:23.669Z,14.80
2022-10-11T15:53:31.361Z,15.00
2022-10-11T15:56:33.979Z,15.90
2022-10-11T15:59:35.786Z,16.20
2022-10-11T16:02:37.481Z,16.30
2022-10-11T16:05:40.032Z,17.10
2022-10-11T16:08:41.736Z,16.50
2022-10-11T16:11:43.747Z,17.60
2022-10-11T16:14:47.322Z,15.70
2022-10-11T16:17:49.471Z,13.80
2022-10-11T16:20:52.540Z,15.30
2022-10-11T16:23:54.275Z,14.80
2022-10-11T16:26:55.949Z,16.30
2022-10-11T16:29:58.036Z,16.30
2022-10-11T16:32:59.797Z,17.00
2022-10-11T16:36:26.079Z,17.10
2022-10-11T16:39:27.890Z,16.90
2022-10-11T16:42:29.594Z,32.30
2022-10-11T16:45:33.000Z,32.20
2022-10-11T16:48:34.639Z,23.50
2022-10-11T16:51:36.269Z,24.40
2022-10-11T16:54:38.323Z,26.80
2022-10-11T16:57:40.067Z,25.10
2022-10-11T17:00:42.412Z,41.80
2022-10-11T17:03:44.169Z,22.80
2022-10-11T17:06:45.982Z,33.30
2022-10-11T17:09:49.093Z,31.80
2022-10-11T17:12:50.841Z,33.40
2022-10-11T17:15:52.602Z,37.70
2022-10-11T17:18:54.376Z,34.70
2022-10-11T17:21:56.012Z,32.20
2022-10-11T17:24:57.901Z,35.40
2022-10-11T17:27:59.620Z,32.00
2022-10-11T17:31:01.795Z,29.90
2022-10-11T17:34:03.547Z,29.80
2022-10-11T17:37:06.177Z,31.80
2022-10-11T17:40:09.130Z,31.80
2022-10-11T17:43:11.415Z,28.40
2022-10-11T17:46:15.348Z,25.50
2022-10-11T17:49:17.230Z,26.30
2022-10-11T17:52:19.178Z,25.60
2022-10-11T17:55:20.994Z,26.00
2022-10-11T17:58:22.806Z,28.90
2022-10-11T18:01:27.252Z,33.60
2022-10-11T18:04:30.237Z,45.20
2022-10-11T18:07:33.010Z,44.90
2022-10-11T18:10:38.185Z,51.80
2022-10-11T18:13:42.972Z,47.60
2022-10-11T18:16:44.937Z,42.30
2022-10-11T18:19:46.777Z,41.80
2022-10-11T18:22:49.667Z,42.10
2022-10-11T18:25:51.473Z,37.90
2022-10-11T18:28:55.008Z,35.00
2022-10-11T18:31:57.108Z,39.30
2022-10-11T18:34:59.916Z,42.70
2022-10-11T18:38:01.763Z,34.30
2022-10-11T18:41:08.813Z,29.50
2022-10-11T18:44:14.309Z,31.70
2022-10-11T18:47:16.082Z,31.70
2022-10-11T18:50:18.487Z,26.50
2022-10-11T18:53:20.212Z,22.30
2022-10-11T18:59:24.966Z,33.80
2022-10-11T19:02:26.743Z,29.10
2022-10-11T19:05:28.493Z,31.10
2022-10-11T19:08:30.219Z,58.40
2022-10-11T19:11:32.297Z,48.60
2022-10-11T19:14:34.219Z,44.10
2022-10-11T19:17:35.958Z,38.20
2022-10-11T19:20:37.767Z,30.40
2022-10-11T19:23:42.251Z,26.80
2022-10-11T19:26:45.146Z,25.30
2022-10-11T19:29:47.028Z,30.10
2022-10-11T19:32:48.909Z,28.40
2022-10-11T19:35:57.320Z,28.50
2022-10-11T19:38:59.906Z,27.70
2022-10-11T19:42:01.859Z,27.50
2022-10-11T19:45:05.242Z,32.80
2022-10-11T19:48:10.208Z,34.20
2022-10-11T19:51:14.078Z,35.50
2022-10-11T19:54:20.354Z,33.10
2022-10-11T19:57:22.140Z,31.40
2022-10-11T20:00:24.387Z,29.20
2022-10-11T20:03:26.356Z,29.30
2022-10-11T20:06:29.057Z,25.70
2022-10-11T20:09:32.299Z,29.40
2022-10-11T20:12:40.235Z,36.50
2022-10-11T20:15:44.293Z,31.80
2022-10-11T20:18:46.402Z,30.40
2022-10-11T20:21:49.189Z,30.40
2022-10-11T20:24:52.614Z,30.50
2022-10-11T20:27:54.415Z,30.20
2022-10-11T20:30:56.461Z,32.20
2022-10-11T20:34:01.834Z,59.60
2022-10-11T20:37:03.590Z,60.70
2022-10-11T20:40:05.743Z,55.30
2022-10-11T20:43:07.599Z,55.20
2022-10-11T20:46:11.514Z,60.10
2022-10-11T20:49:13.510Z,42.20
2022-10-11T20:52:15.219Z,57.60
2022-10-11T20:58:19.026Z,53.20
2022-10-11T21:01:24.042Z,63.80
2022-10-11T21:04:25.873Z,64.00
2022-10-11T21:07:27.613Z,71.90
2022-10-11T21:13:34.247Z,65.30
2022-10-11T21:16:36.859Z,66.40
2022-10-11T21:19:38.702Z,52.50
2022-10-11T21:22:40.490Z,50.10
2022-10-11T21:25:42.313Z,40.00
2022-10-11T21:28:45.392Z,39.20
2022-10-11T21:31:47.228Z,65.90
2022-10-11T21:34:48.943Z,49.80
2022-10-11T21:40:52.708Z,48.80
2022-10-11T21:43:54.772Z,63.60
2022-10-11T21:47:12.021Z,48.90
2022-10-11T21:50:14.115Z,66.00
2022-10-11T21:53:15.875Z,45.70
2022-10-11T21:56:18.226Z,59.80
2022-10-11T21:59:19.975Z,53.90
2022-10-11T22:05:24.435Z,45.50
2022-10-11T22:08:26.313Z,57.00
2022-10-11T22:11:28.066Z,33.10
2022-10-11T22:17:31.678Z,20.30
2022-10-11T22:23:35.901Z,21.60
2022-10-11T22:26:37.809Z,26.90
2022-10-11T22:29:39.604Z,30.50
2022-10-11T22:32:42.109Z,33.00
2022-10-11T22:35:44.446Z,33.60
2022-10-11T22:38:46.680Z,41.50
2022-10-11T22:41:48.659Z,35.60
2022-10-11T22:44:50.901Z,37.20
2022-10-11T22:47:52.635Z,35.50
2022-10-11T22:50:54.821Z,35.10
2022-10-11T22:53:56.594Z,36.30
2022-10-11T23:00:00.247Z,33.80
2022-10-11T23:03:02.104Z,35.00
2022-10-11T23:06:23.766Z,33.40
2022-10-11T23:09:40.997Z,33.40
2022-10-11T23:12:43.810Z,31.40
2022-10-11T23:15:45.862Z,32.50
2022-10-11T23:18:47.922Z,30.20
2022-10-11T23:21:49.683Z,33.40
2022-10-11T23:24:51.674Z,31.90
2022-10-11T23:27:53.352Z,30.20
2022-10-11T23:31:06.265Z,32.50
2022-10-11T23:34:07.972Z,24.30
2022-10-11T23:40:11.546Z,23.50
2022-10-11T23:43:13.841Z,21.70
2022-10-11T23:49:17.431Z,19.80
2022-10-11T23:52:19.223Z,23.00
2022-10-11T23:55:21.457Z,23.60
2022-10-11T23:58:23.289Z,25.30
